Geyser, Montana
Current Conditions -  °F | °C
As of 6:57 PM on Tuesday 25 Nov 2014 (Local Time) from KGFA Reporting Station
Overcast Overcast  
Wind Chill: 22°   Ceiling: 6500
Heat Index: 30°   Visibility: 10mi
Dew Point: 28°   Wind: 9mph
Humidity: 91%   Direction: 220°SW
Pressure: 30.15"   Gusts: NA
Location:  47.25°N, 110.5°W
Report Text: KGFA 260157Z AUTO 22008KT 10SM OVC065 M01/M02 A3015 RMK AO2 SLP241 T10111024
Loading
Personal Weather Stations






























Interactive Weather Map New forecast layout! Learn more

10-Day Weather Forecast

Advertisements
Track Severe Weather on mobile